createdAt,value
2018-04-24T00:00:25.564Z,11.80
2018-04-24T00:02:53.807Z,11.80
2018-04-24T00:05:22.853Z,11.70
2018-04-24T00:07:51.121Z,11.60
2018-04-24T00:10:20.866Z,11.50
2018-04-24T00:12:49.143Z,11.50
2018-04-24T00:15:17.382Z,11.50
2018-04-24T00:17:45.632Z,11.50
2018-04-24T00:20:13.873Z,11.40
2018-04-24T00:22:42.890Z,11.30
2018-04-24T00:25:11.890Z,11.30
2018-04-24T00:27:40.927Z,11.30
2018-04-24T00:30:09.923Z,11.30
2018-04-24T00:32:38.179Z,11.30
2018-04-24T00:35:06.418Z,11.30
2018-04-24T00:37:34.697Z,11.30
2018-04-24T00:40:02.951Z,11.30
2018-04-24T00:42:37.447Z,11.20
2018-04-24T00:45:05.705Z,11.20
2018-04-24T00:47:33.965Z,11.20
2018-04-24T00:50:03.352Z,11.10
2018-04-24T00:52:31.612Z,11.10
2018-04-24T00:54:59.860Z,11.10
2018-04-24T00:57:29.247Z,11.00
2018-04-24T00:59:57.664Z,11.10
2018-04-24T01:02:25.934Z,11.10
2018-04-24T01:04:54.175Z,11.10
2018-04-24T01:07:22.451Z,11.10
2018-04-24T01:09:51.503Z,11.10
2018-04-24T01:12:19.767Z,11.10
2018-04-24T01:14:48.019Z,11.10
2018-04-24T01:17:17.082Z,11.10
2018-04-24T01:19:45.311Z,11.00
2018-04-24T01:22:13.565Z,11.10
2018-04-24T01:24:41.813Z,11.10
2018-04-24T01:27:10.061Z,11.10
2018-04-24T01:29:38.323Z,11.10
2018-04-24T01:32:06.575Z,11.10
2018-04-24T01:34:34.820Z,11.10
2018-04-24T01:37:03.070Z,11.10
2018-04-24T01:39:31.328Z,11.10
2018-04-24T01:42:00.334Z,11.00
2018-04-24T01:44:30.131Z,10.90
2018-04-24T01:46:58.376Z,10.90
2018-04-24T01:49:26.661Z,10.90
2018-04-24T01:51:54.915Z,10.80
2018-04-24T01:54:23.971Z,10.80
2018-04-24T01:56:52.221Z,10.70
2018-04-24T01:59:21.244Z,10.70
2018-04-24T02:01:49.483Z,10.70
2018-04-24T02:04:17.746Z,10.70
2018-04-24T02:06:45.986Z,10.70
2018-04-24T02:09:15.011Z,10.60
2018-04-24T02:11:43.312Z,10.60
2018-04-24T02:14:11.566Z,10.60
2018-04-24T02:16:40.588Z,10.50
2018-04-24T02:19:09.007Z,10.50
2018-04-24T02:21:37.256Z,10.50
2018-04-24T02:24:06.328Z,10.40
2018-04-24T02:26:34.616Z,10.30
2018-04-24T02:29:02.875Z,10.40
2018-04-24T02:31:31.159Z,10.30
2018-04-24T02:33:59.424Z,10.40
2018-04-24T02:36:28.457Z,10.30
2018-04-24T02:38:56.717Z,10.20
2018-04-24T02:41:24.997Z,10.30
2018-04-24T02:43:53.212Z,10.20
2018-04-24T02:46:21.461Z,10.20
2018-04-24T02:48:49.763Z,10.20
2018-04-24T02:51:19.525Z,10.10
2018-04-24T02:53:47.766Z,10.10
2018-04-24T02:56:16.023Z,10.10
2018-04-24T02:58:44.278Z,10.10
2018-04-24T03:01:12.543Z,10.10
2018-04-24T03:03:40.784Z,10.10
2018-04-24T03:06:09.039Z,10.10
2018-04-24T03:08:38.042Z,10.10
2018-04-24T03:11:07.538Z,10.10
2018-04-24T03:13:35.795Z,10.00
2018-04-24T03:16:04.080Z,10.10
2018-04-24T03:18:32.336Z,10.10
2018-04-24T03:21:01.371Z,10.10
2018-04-24T03:23:29.613Z,10.00
2018-04-24T03:25:58.624Z,10.20
2018-04-24T03:28:27.627Z,10.30
2018-04-24T03:30:56.646Z,10.30
2018-04-24T03:33:24.930Z,10.30
2018-04-24T03:35:53.953Z,10.40
2018-04-24T03:38:22.207Z,10.30
2018-04-24T03:40:50.474Z,10.40
2018-04-24T03:43:18.701Z,10.50
2018-04-24T03:45:47.747Z,10.60
2018-04-24T03:48:15.991Z,10.50
2018-04-24T03:50:45.065Z,10.60
2018-04-24T03:53:13.311Z,10.50
2018-04-24T03:55:41.571Z,10.60
2018-04-24T03:58:10.603Z,10.60
2018-04-24T04:00:38.872Z,10.50
2018-04-24T04:03:07.879Z,10.60
2018-04-24T04:05:36.918Z,10.60
2018-04-24T04:08:05.991Z,10.50
2018-04-24T04:10:35.037Z,10.50
2018-04-24T04:13:03.301Z,10.50
2018-04-24T04:15:31.576Z,10.50
2018-04-24T04:18:17.496Z,10.50
2018-04-24T04:21:04.510Z,10.50
2018-04-24T04:23:51.335Z,10.50
2018-04-24T04:26:20.446Z,10.50
2018-04-24T04:28:49.479Z,10.50
2018-04-24T04:31:18.608Z,10.40
2018-04-24T04:33:46.905Z,10.50
2018-04-24T04:36:15.175Z,10.50
2018-04-24T04:38:44.187Z,10.60
2018-04-24T04:41:12.555Z,10.50
2018-04-24T04:43:40.839Z,10.60
2018-04-24T04:46:09.145Z,10.60
2018-04-24T04:48:37.384Z,10.70
2018-04-24T04:51:05.647Z,10.70
2018-04-24T04:53:33.904Z,10.80
2018-04-24T04:56:02.216Z,10.90
2018-04-24T04:58:30.415Z,10.90
2018-04-24T05:00:58.659Z,11.00
2018-04-24T05:03:28.425Z,11.10
2018-04-24T05:05:56.672Z,11.10
2018-04-24T05:08:25.716Z,11.40
2018-04-24T05:10:53.983Z,11.30
2018-04-24T05:13:22.262Z,11.40
2018-04-24T05:15:50.507Z,11.50
2018-04-24T05:18:18.764Z,11.60
2018-04-24T05:20:47.027Z,11.60
2018-04-24T05:23:15.298Z,11.70
2018-04-24T05:25:44.317Z,11.90
2018-04-24T05:28:13.335Z,12.10
2018-04-24T05:30:41.584Z,12.00
2018-04-24T05:33:09.839Z,12.20
2018-04-24T05:35:38.094Z,12.50
2018-04-24T05:38:07.102Z,13.80
2018-04-24T05:40:35.390Z,13.70
2018-04-24T05:43:04.427Z,15.80
2018-04-24T05:45:32.776Z,15.70
2018-04-24T05:48:01.815Z,18.60
2018-04-24T05:50:30.046Z,18.40
2018-04-24T05:52:58.357Z,19.60
2018-04-24T05:55:26.551Z,20.50
2018-04-24T05:57:55.649Z,21.50
2018-04-24T06:00:23.811Z,21.50
2018-04-24T06:02:52.077Z,22.00
2018-04-24T06:05:20.311Z,22.00
2018-04-24T06:07:48.565Z,22.20
2018-04-24T06:10:16.802Z,21.80
2018-04-24T06:12:45.834Z,20.60
2018-04-24T06:15:14.195Z,20.50
2018-04-24T06:17:42.315Z,19.90
2018-04-24T06:20:10.572Z,19.10
2018-04-24T06:22:38.832Z,18.20
2018-04-24T06:25:07.079Z,17.70
2018-04-24T06:27:35.363Z,17.20
2018-04-24T06:30:03.611Z,17.00
2018-04-24T06:32:31.907Z,16.90
2018-04-24T06:35:00.187Z,16.80
2018-04-24T06:37:28.431Z,16.90
2018-04-24T06:39:56.687Z,16.80
2018-04-24T06:42:25.696Z,16.90
2018-04-24T06:44:54.720Z,16.90
2018-04-24T06:47:22.973Z,16.80
2018-04-24T06:49:51.279Z,16.90
2018-04-24T06:52:20.281Z,16.90
2018-04-24T06:54:49.376Z,17.00
2018-04-24T06:57:17.627Z,16.90
2018-04-24T06:59:45.896Z,17.10
2018-04-24T07:02:14.154Z,17.30
2018-04-24T07:04:43.189Z,17.20
2018-04-24T07:07:11.438Z,17.20
2018-04-24T07:09:39.695Z,17.10
2018-04-24T07:12:07.943Z,17.10
2018-04-24T07:14:36.207Z,17.20
2018-04-24T07:17:05.968Z,17.40
2018-04-24T07:19:34.243Z,17.40
2018-04-24T07:22:02.504Z,17.60
2018-04-24T07:24:30.746Z,17.70
2018-04-24T07:26:58.974Z,17.80
2018-04-24T07:29:27.230Z,17.90
2018-04-24T07:31:55.479Z,17.90
2018-04-24T07:34:24.501Z,18.00
2018-04-24T07:36:52.749Z,18.00
2018-04-24T07:39:21.004Z,18.10
2018-04-24T07:41:49.243Z,18.10
2018-04-24T07:44:18.635Z,18.10
2018-04-24T07:46:46.947Z,18.10
2018-04-24T07:49:15.178Z,18.20
2018-04-24T07:51:43.503Z,18.20
2018-04-24T07:54:11.663Z,18.40
2018-04-24T07:56:39.915Z,18.70
2018-04-24T07:59:08.162Z,18.80
2018-04-24T08:01:36.520Z,19.00
2018-04-24T08:04:04.763Z,19.30
2018-04-24T08:06:33.035Z,19.50
2018-04-24T08:09:01.286Z,19.70
2018-04-24T08:11:29.556Z,19.70
2018-04-24T08:13:58.578Z,19.30
2018-04-24T08:16:26.827Z,19.20
2018-04-24T08:18:55.072Z,18.90
2018-04-24T08:21:23.310Z,18.90
2018-04-24T08:23:52.319Z,19.20
2018-04-24T08:26:20.641Z,19.20
2018-04-24T08:28:48.901Z,19.40
2018-04-24T08:31:17.940Z,19.40
2018-04-24T08:33:46.182Z,19.40
2018-04-24T08:36:14.440Z,19.40
2018-04-24T08:38:42.679Z,19.40
2018-04-24T08:41:11.731Z,20.10
2018-04-24T08:43:39.959Z,20.10
2018-04-24T08:46:08.210Z,20.50
2018-04-24T08:48:36.447Z,20.50
2018-04-24T08:51:04.710Z,20.30
2018-04-24T08:53:32.964Z,20.20
2018-04-24T08:56:01.222Z,19.90
2018-04-24T09:00:59.275Z,19.60
2018-04-24T09:03:27.527Z,19.70
2018-04-24T09:05:56.655Z,20.50
2018-04-24T09:08:24.899Z,20.50
2018-04-24T09:10:54.649Z,20.40
2018-04-24T09:13:23.687Z,20.10
2018-04-24T09:15:51.925Z,20.10
2018-04-24T09:18:20.212Z,19.80
2018-04-24T09:20:48.449Z,19.80
2018-04-24T09:23:16.711Z,19.80
2018-04-24T09:25:44.959Z,19.80
2018-04-24T09:28:13.250Z,19.80
2018-04-24T09:30:42.256Z,19.50
2018-04-24T09:33:10.548Z,19.60
2018-04-24T09:35:38.769Z,19.40
2018-04-24T09:38:07.813Z,19.10
2018-04-24T09:40:37.021Z,19.10
2018-04-24T09:43:05.286Z,19.20
2018-04-24T09:45:34.316Z,19.10
2018-04-24T09:48:02.567Z,19.10
2018-04-24T09:50:30.826Z,19.10
2018-04-24T09:53:00.615Z,19.40
2018-04-24T09:55:28.861Z,19.40
2018-04-24T09:57:57.117Z,19.40
2018-04-24T10:00:30.796Z,19.20
2018-04-24T10:02:59.097Z,19.60
2018-04-24T10:05:27.405Z,20.10
2018-04-24T10:07:55.675Z,20.50
2018-04-24T10:10:23.920Z,20.90
2018-04-24T10:12:52.455Z,21.00
2018-04-24T10:15:20.771Z,20.90
2018-04-24T10:17:49.076Z,20.70
2018-04-24T10:20:17.311Z,20.60
2018-04-24T10:22:46.348Z,20.40
2018-04-24T10:25:14.588Z,20.40
2018-04-24T10:27:42.827Z,20.50
2018-04-24T10:30:11.067Z,20.60
2018-04-24T10:32:39.344Z,20.90
2018-04-24T10:35:07.640Z,21.10
2018-04-24T10:37:35.947Z,21.00
2018-04-24T10:40:04.175Z,20.90
2018-04-24T10:42:32.423Z,20.80
2018-04-24T10:45:00.674Z,20.80
2018-04-24T10:47:28.975Z,21.00
2018-04-24T10:49:57.260Z,21.40
2018-04-24T10:52:25.528Z,21.70
2018-04-24T10:54:53.957Z,22.10
2018-04-24T10:57:22.205Z,22.10
2018-04-24T10:59:50.478Z,22.20
2018-04-24T11:02:19.487Z,22.00
2018-04-24T11:04:47.747Z,22.00
2018-04-24T11:07:16.036Z,22.10
2018-04-24T11:09:45.059Z,22.40
2018-04-24T11:12:14.061Z,22.20
2018-04-24T11:14:43.100Z,22.30
2018-04-24T11:17:12.892Z,22.30
2018-04-24T11:19:41.138Z,22.30
2018-04-24T11:22:09.370Z,22.40
2018-04-24T11:24:38.403Z,22.80
2018-04-24T11:27:06.633Z,22.70
2018-04-24T11:29:34.926Z,22.90
2018-04-24T11:32:03.381Z,22.90
2018-04-24T11:34:31.681Z,22.80
2018-04-24T11:36:59.938Z,22.50
2018-04-24T11:39:28.203Z,22.40
2018-04-24T11:41:56.438Z,22.30
2018-04-24T11:44:25.590Z,22.10
2018-04-24T11:46:53.869Z,22.10
2018-04-24T11:49:22.137Z,22.20
2018-04-24T11:51:51.160Z,22.40
2018-04-24T11:54:20.176Z,22.50
2018-04-24T11:56:49.286Z,22.40
2018-04-24T11:59:18.319Z,22.50
2018-04-24T12:01:46.576Z,22.50
2018-04-24T12:04:15.582Z,22.70
2018-04-24T12:06:44.610Z,22.80
2018-04-24T12:09:12.851Z,22.80
2018-04-24T12:11:41.305Z,22.80
2018-04-24T12:14:09.569Z,22.90
2018-04-24T12:16:38.606Z,23.10
2018-04-24T12:19:07.565Z,23.10
2018-04-24T12:21:35.811Z,23.20
2018-04-24T12:24:04.067Z,23.40
2018-04-24T12:26:32.327Z,23.40
2018-04-24T12:29:00.626Z,23.40
2018-04-24T12:31:29.645Z,23.00
2018-04-24T12:33:57.906Z,22.90
2018-04-24T12:36:26.167Z,22.80
2018-04-24T12:38:54.484Z,22.50
2018-04-24T12:41:22.741Z,22.30
2018-04-24T12:43:50.990Z,22.30
2018-04-24T12:46:19.252Z,22.00
2018-04-24T12:48:47.487Z,21.90
2018-04-24T12:51:15.751Z,21.90
2018-04-24T12:53:44.761Z,21.80
2018-04-24T12:56:13.803Z,21.80
2018-04-24T12:58:42.055Z,21.80
2018-04-24T13:01:11.069Z,21.30
2018-04-24T13:03:39.316Z,21.30
2018-04-24T13:06:07.638Z,21.40
2018-04-24T13:08:36.668Z,21.80
2018-04-24T13:11:04.937Z,21.70
2018-04-24T13:13:33.996Z,22.00
2018-04-24T13:16:02.259Z,21.90
2018-04-24T13:18:30.514Z,22.10
2018-04-24T13:20:59.624Z,22.10
2018-04-24T13:23:27.885Z,22.10
2018-04-24T13:25:56.143Z,22.20
2018-04-24T13:28:24.387Z,22.30
2018-04-24T13:30:52.681Z,22.60
2018-04-24T13:33:21.686Z,22.70
2018-04-24T13:35:50.754Z,22.60
2018-04-24T13:38:19.064Z,22.60
2018-04-24T13:40:47.374Z,22.70
2018-04-24T13:43:15.661Z,22.50
2018-04-24T13:45:43.895Z,22.30
2018-04-24T13:48:12.166Z,22.50
2018-04-24T13:50:40.410Z,22.60
2018-04-24T13:53:08.799Z,22.70
2018-04-24T13:55:37.056Z,22.60
2018-04-24T13:58:05.333Z,22.60
2018-04-24T14:00:33.571Z,22.60
2018-04-24T14:03:01.822Z,22.40
2018-04-24T14:05:30.073Z,22.50
2018-04-24T14:07:59.095Z,21.90
2018-04-24T14:10:27.327Z,21.90
2018-04-24T14:12:55.610Z,21.60
2018-04-24T14:15:23.843Z,21.60
2018-04-24T14:17:54.610Z,21.90
2018-04-24T14:20:22.890Z,21.90
2018-04-24T14:22:51.915Z,22.20
2018-04-24T14:25:20.176Z,22.10
2018-04-24T14:27:49.287Z,22.40
2018-04-24T14:30:17.619Z,22.40
2018-04-24T14:32:45.876Z,22.40
2018-04-24T14:35:14.123Z,22.60
2018-04-24T14:37:42.376Z,22.70
2018-04-24T14:40:10.627Z,22.90
2018-04-24T14:42:39.732Z,22.70
2018-04-24T14:45:07.893Z,22.70
2018-04-24T14:47:36.165Z,22.50
2018-04-24T14:50:04.540Z,22.50
2018-04-24T14:52:32.710Z,22.30
2018-04-24T14:55:00.980Z,22.20
2018-04-24T14:57:30.000Z,22.10
2018-04-24T14:59:58.261Z,22.10
2018-04-24T15:02:27.280Z,22.20
2018-04-24T15:04:56.355Z,22.00
2018-04-24T15:07:24.681Z,22.00
2018-04-24T15:09:52.976Z,21.90
2018-04-24T15:12:21.235Z,21.90
2018-04-24T15:14:50.270Z,22.00
2018-04-24T15:17:19.283Z,22.40
2018-04-24T15:19:47.562Z,22.30
2018-04-24T15:22:16.573Z,22.70
2018-04-24T15:24:45.594Z,22.80
2018-04-24T15:27:13.842Z,22.80
2018-04-24T15:29:42.115Z,22.80
2018-04-24T15:32:10.371Z,22.80
2018-04-24T15:34:38.649Z,22.60
2018-04-24T15:37:06.905Z,22.60
2018-04-24T15:39:35.170Z,22.70
2018-04-24T15:42:03.411Z,22.60
2018-04-24T15:44:31.669Z,22.70
2018-04-24T15:46:59.931Z,22.80
2018-04-24T15:49:28.248Z,22.80
2018-04-24T15:51:56.423Z,22.80
2018-04-24T15:54:24.734Z,22.60
2018-04-24T15:56:52.976Z,22.60
2018-04-24T15:59:21.355Z,22.50
2018-04-24T16:01:49.596Z,22.60
2018-04-24T16:04:18.619Z,22.60
2018-04-24T16:06:46.863Z,22.60
2018-04-24T16:09:15.121Z,22.60
2018-04-24T16:11:43.367Z,22.60
2018-04-24T16:14:12.392Z,22.50
2018-04-24T16:16:40.633Z,22.40
2018-04-24T16:19:08.891Z,22.30
2018-04-24T16:21:37.130Z,22.30
2018-04-24T16:24:05.449Z,22.20
2018-04-24T16:26:33.644Z,22.20
2018-04-24T16:29:01.883Z,22.00
2018-04-24T16:31:30.148Z,22.10
2018-04-24T16:33:58.400Z,22.10
2018-04-24T16:36:27.474Z,22.00
2018-04-24T16:38:55.716Z,21.90
2018-04-24T16:41:24.042Z,21.90
2018-04-24T16:43:52.298Z,21.90
2018-04-24T16:46:20.562Z,21.80
2018-04-24T16:48:48.835Z,21.70
2018-04-24T16:51:18.265Z,21.40
2018-04-24T16:53:47.663Z,21.30
2018-04-24T16:56:16.010Z,21.30
2018-04-24T16:58:44.155Z,21.30
2018-04-24T17:01:13.280Z,21.20
2018-04-24T17:03:41.565Z,21.20
2018-04-24T17:06:10.667Z,21.40
2018-04-24T17:08:38.906Z,21.40
2018-04-24T17:11:08.059Z,21.40
2018-04-24T17:13:37.133Z,21.40
2018-04-24T17:16:05.390Z,21.30
2018-04-24T17:18:33.654Z,21.50
2018-04-24T17:21:02.676Z,21.70
2018-04-24T17:23:30.902Z,21.60
2018-04-24T17:25:59.167Z,21.60
2018-04-24T17:28:27.401Z,21.30
2018-04-24T17:30:55.750Z,21.10
2018-04-24T17:33:24.031Z,21.00
2018-04-24T17:35:52.327Z,20.80
2018-04-24T17:38:20.921Z,20.70
2018-04-24T17:40:49.247Z,20.50
2018-04-24T17:43:17.459Z,20.20
2018-04-24T17:45:46.488Z,19.90
2018-04-24T17:48:15.508Z,19.80
2018-04-24T17:50:43.742Z,19.70
2018-04-24T17:53:12.031Z,19.60
2018-04-24T17:55:41.835Z,19.20
2018-04-24T17:58:10.220Z,19.20
2018-04-24T18:00:38.520Z,19.10
2018-04-24T18:03:07.584Z,18.80
2018-04-24T18:05:35.832Z,18.80
2018-04-24T18:08:04.139Z,18.70
2018-04-24T18:10:33.172Z,18.40
2018-04-24T18:13:02.226Z,18.30
2018-04-24T18:15:30.515Z,18.20
2018-04-24T18:17:58.775Z,18.20
2018-04-24T18:20:27.013Z,18.00
2018-04-24T18:22:55.286Z,17.90
2018-04-24T18:25:24.327Z,17.60
2018-04-24T18:27:53.773Z,17.50
2018-04-24T18:30:22.055Z,17.40
2018-04-24T18:32:50.316Z,17.40
2018-04-24T18:35:19.331Z,17.10
2018-04-24T18:37:47.585Z,17.10
2018-04-24T18:40:15.839Z,17.00
2018-04-24T18:42:44.095Z,16.90
2018-04-24T18:45:13.120Z,16.80
2018-04-24T18:47:41.403Z,16.70
2018-04-24T18:50:09.710Z,16.70
2018-04-24T18:52:37.974Z,16.60
2018-04-24T18:55:06.992Z,16.30
2018-04-24T18:57:35.228Z,16.30
2018-04-24T19:00:03.619Z,16.20
2018-04-24T19:02:31.866Z,16.10
2018-04-24T19:05:00.227Z,16.00
2018-04-24T19:07:29.231Z,15.80
2018-04-24T19:12:27.863Z,15.60
2018-04-24T19:14:57.291Z,15.50
2018-04-24T19:17:26.399Z,15.40
2018-04-24T19:19:55.443Z,15.40
2018-04-24T19:22:23.716Z,15.40
2018-04-24T19:24:57.619Z,15.30
2018-04-24T19:27:25.882Z,15.20
2018-04-24T19:29:54.176Z,15.20
2018-04-24T19:32:28.664Z,15.10
2018-04-24T19:34:56.940Z,15.00
2018-04-24T19:37:25.219Z,15.00
2018-04-24T19:39:59.119Z,15.00
2018-04-24T19:42:28.505Z,14.80
2018-04-24T19:44:57.535Z,14.70
2018-04-24T19:47:26.548Z,14.60
2018-04-24T19:50:01.854Z,14.50
2018-04-24T19:52:30.130Z,14.50
2018-04-24T19:55:03.913Z,14.50
2018-04-24T19:57:32.943Z,14.40
2018-04-24T20:00:01.198Z,14.30
2018-04-24T20:02:30.248Z,14.30
2018-04-24T20:04:59.278Z,14.20
2018-04-24T20:07:27.526Z,14.20
2018-04-24T20:09:56.574Z,14.20
2018-04-24T20:12:24.851Z,14.10
2018-04-24T20:14:53.104Z,14.10
2018-04-24T20:17:21.545Z,14.00
2018-04-24T20:19:49.823Z,14.00
2018-04-24T20:22:18.074Z,13.90
2018-04-24T20:24:47.468Z,13.80
2018-04-24T20:27:16.475Z,13.70
2018-04-24T20:29:44.771Z,13.70
2018-04-24T20:32:13.104Z,13.60
2018-04-24T20:34:41.368Z,13.60
2018-04-24T20:37:09.636Z,13.50
2018-04-24T20:39:38.647Z,13.50
2018-04-24T20:42:07.659Z,13.40
2018-04-24T20:44:36.675Z,13.30
2018-04-24T20:47:04.914Z,13.20
2018-04-24T20:49:33.161Z,13.20
2018-04-24T20:52:01.444Z,13.20
2018-04-24T20:54:29.749Z,13.10
2018-04-24T20:56:58.008Z,13.00
2018-04-24T20:59:27.018Z,13.00
2018-04-24T21:01:56.049Z,13.00
2018-04-24T21:04:24.336Z,12.90
2018-04-24T21:06:52.634Z,13.00
2018-04-24T21:09:21.308Z,12.90
2018-04-24T21:11:50.407Z,12.90
2018-04-24T21:14:19.416Z,12.90
2018-04-24T21:16:48.436Z,12.90
2018-04-24T21:19:17.557Z,12.90
2018-04-24T21:21:45.868Z,12.80
2018-04-24T21:24:14.107Z,12.90
2018-04-24T21:26:43.134Z,12.80
2018-04-24T21:29:11.387Z,12.80
2018-04-24T21:31:40.456Z,12.80
2018-04-24T21:34:08.799Z,12.70
2018-04-24T21:36:38.574Z,12.70
2018-04-24T21:39:06.816Z,12.70
2018-04-24T21:41:36.218Z,12.60
2018-04-24T21:44:04.453Z,12.60
2018-04-24T21:46:32.748Z,12.70
2018-04-24T21:49:00.996Z,12.70
2018-04-24T21:51:30.112Z,12.60
2018-04-24T21:53:59.104Z,12.60
2018-04-24T21:56:28.539Z,12.60
2018-04-24T21:58:56.924Z,12.50
2018-04-24T22:01:26.046Z,12.50
2018-04-24T22:03:54.356Z,12.40
2018-04-24T22:06:22.663Z,12.40
2018-04-24T22:08:50.900Z,12.40
2018-04-24T22:11:19.927Z,12.40
2018-04-24T22:13:48.236Z,12.30
2018-04-24T22:16:16.495Z,12.40
2018-04-24T22:18:45.527Z,12.40
2018-04-24T22:21:13.806Z,12.30
2018-04-24T22:23:42.066Z,12.30
2018-04-24T22:26:11.084Z,12.30
2018-04-24T22:28:40.162Z,12.30
2018-04-24T22:31:08.435Z,12.20
2018-04-24T22:33:36.869Z,12.20
2018-04-24T22:36:05.133Z,12.20
2018-04-24T22:38:33.493Z,12.20
2018-04-24T22:41:01.729Z,12.10
2018-04-24T22:43:30.749Z,12.00
2018-04-24T22:46:00.491Z,11.90
2018-04-24T22:48:28.754Z,11.90
2018-04-24T22:50:57.772Z,11.90
2018-04-24T22:53:26.819Z,11.70
2018-04-24T22:55:55.065Z,11.80
2018-04-24T22:58:24.120Z,11.70
2018-04-24T23:00:52.477Z,11.70
2018-04-24T23:05:50.472Z,11.50
2018-04-24T23:08:19.486Z,11.50
2018-04-24T23:11:05.574Z,11.50
2018-04-24T23:13:51.483Z,11.50
2018-04-24T23:16:38.370Z,11.50
2018-04-24T23:19:24.554Z,11.40
2018-04-24T23:21:52.881Z,11.40
2018-04-24T23:24:21.153Z,11.40
2018-04-24T23:26:49.404Z,11.40
2018-04-24T23:29:18.492Z,11.30
2018-04-24T23:31:47.502Z,11.30
2018-04-24T23:34:15.783Z,11.20
2018-04-24T23:36:44.191Z,11.30
2018-04-24T23:39:13.313Z,11.20
2018-04-24T23:41:41.550Z,11.20
2018-04-24T23:44:09.881Z,11.20
2018-04-24T23:49:07.825Z,11.20
2018-04-24T23:51:36.079Z,11.30
2018-04-24T23:54:05.117Z,11.40
2018-04-24T23:56:36.135Z,11.30
2018-04-24T23:59:05.157Z,11.60
